sensor_id;sensor_type;location;lat;lon;timestamp;temperature;humidity
52979;DHT22;51106;53.186;6.598;2022-08-30T00:02:16;15.10;99.90
52979;DHT22;51106;53.186;6.598;2022-08-30T00:04:18;15.00;99.90
52979;DHT22;51106;53.186;6.598;2022-08-30T00:06:21;15.00;99.90
52979;DHT22;51106;53.186;6.598;2022-08-30T00:08:23;15.00;99.90
52979;DHT22;51106;53.186;6.598;2022-08-30T00:10:26;14.90;99.90
52979;DHT22;51106;53.186;6.598;2022-08-30T00:12:29;14.80;99.90
52979;DHT22;51106;53.186;6.598;2022-08-30T00:14:32;14.80;99.90
52979;DHT22;51106;53.186;6.598;2022-08-30T00:16:34;14.80;99.90
52979;DHT22;51106;53.186;6.598;2022-08-30T00:18:36;14.80;99.90
52979;DHT22;51106;53.186;6.598;2022-08-30T00:20:38;14.80;99.90
52979;DHT22;51106;53.186;6.598;2022-08-30T00:22:40;14.80;99.90
52979;DHT22;51106;53.186;6.598;2022-08-30T00:24:43;14.80;99.90
52979;DHT22;51106;53.186;6.598;2022-08-30T00:26:45;14.70;99.90
52979;DHT22;51106;53.186;6.598;2022-08-30T00:28:47;14.70;99.90
52979;DHT22;51106;53.186;6.598;2022-08-30T00:30:49;15.00;99.90
52979;DHT22;51106;53.186;6.598;2022-08-30T00:32:51;14.70;99.90
52979;DHT22;51106;53.186;6.598;2022-08-30T00:34:55;14.70;99.90
52979;DHT22;51106;53.186;6.598;2022-08-30T00:36:57;14.60;99.90
52979;DHT22;51106;53.186;6.598;2022-08-30T00:38:59;14.60;99.90
52979;DHT22;51106;53.186;6.598;2022-08-30T00:41:01;14.60;99.90
52979;DHT22;51106;53.186;6.598;2022-08-30T00:43:07;14.60;99.90
52979;DHT22;51106;53.186;6.598;2022-08-30T00:45:22;14.50;99.90
52979;DHT22;51106;53.186;6.598;2022-08-30T00:47:25;14.50;99.90
52979;DHT22;51106;53.186;6.598;2022-08-30T00:49:29;14.50;99.90
52979;DHT22;51106;53.186;6.598;2022-08-30T00:51:31;14.50;99.90
52979;DHT22;51106;53.186;6.598;2022-08-30T00:53:38;14.50;99.90
52979;DHT22;51106;53.186;6.598;2022-08-30T00:55:42;14.50;99.90
52979;DHT22;51106;53.186;6.598;2022-08-30T00:57:46;14.50;99.90
52979;DHT22;51106;53.186;6.598;2022-08-30T00:59:48;14.50;99.90
52979;DHT22;51106;53.186;6.598;2022-08-30T01:01:51;14.50;99.90
52979;DHT22;51106;53.186;6.598;2022-08-30T01:03:53;14.50;99.90
52979;DHT22;51106;53.186;6.598;2022-08-30T01:05:57;14.40;99.90
52979;DHT22;51106;53.186;6.598;2022-08-30T01:07:59;14.30;99.90
52979;DHT22;51106;53.186;6.598;2022-08-30T01:10:02;14.40;99.90
52979;DHT22;51106;53.186;6.598;2022-08-30T01:12:05;14.40;99.90
52979;DHT22;51106;53.186;6.598;2022-08-30T01:14:07;14.30;99.90
52979;DHT22;51106;53.186;6.598;2022-08-30T01:16:11;14.20;99.90
52979;DHT22;51106;53.186;6.598;2022-08-30T01:18:14;14.20;99.90
52979;DHT22;51106;53.186;6.598;2022-08-30T01:20:36;14.10;99.90
52979;DHT22;51106;53.186;6.598;2022-08-30T01:23:03;14.10;99.90
52979;DHT22;51106;53.186;6.598;2022-08-30T01:25:08;14.10;99.90
52979;DHT22;51106;53.186;6.598;2022-08-30T01:27:10;14.10;99.90
52979;DHT22;51106;53.186;6.598;2022-08-30T01:29:17;14.00;99.90
52979;DHT22;51106;53.186;6.598;2022-08-30T01:31:21;14.00;99.90
52979;DHT22;51106;53.186;6.598;2022-08-30T01:33:24;14.00;99.90
52979;DHT22;51106;53.186;6.598;2022-08-30T01:35:27;14.00;99.90
52979;DHT22;51106;53.186;6.598;2022-08-30T01:37:32;14.00;99.90
52979;DHT22;51106;53.186;6.598;2022-08-30T01:39:34;14.00;99.90
52979;DHT22;51106;53.186;6.598;2022-08-30T01:41:36;14.00;99.90
52979;DHT22;51106;53.186;6.598;2022-08-30T01:43:38;14.00;99.90
52979;DHT22;51106;53.186;6.598;2022-08-30T01:45:40;14.00;99.90
52979;DHT22;51106;53.186;6.598;2022-08-30T01:47:43;14.00;99.90
52979;DHT22;51106;53.186;6.598;2022-08-30T01:49:45;13.90;99.90
52979;DHT22;51106;53.186;6.598;2022-08-30T01:51:48;13.90;99.90
52979;DHT22;51106;53.186;6.598;2022-08-30T01:54:01;13.90;99.90
52979;DHT22;51106;53.186;6.598;2022-08-30T01:56:04;13.90;99.90
52979;DHT22;51106;53.186;6.598;2022-08-30T01:58:06;13.90;99.90
52979;DHT22;51106;53.186;6.598;2022-08-30T02:00:09;13.90;99.90
52979;DHT22;51106;53.186;6.598;2022-08-30T02:02:11;13.90;99.90
52979;DHT22;51106;53.186;6.598;2022-08-30T02:04:13;13.90;99.90
52979;DHT22;51106;53.186;6.598;2022-08-30T02:06:17;14.10;99.90
52979;DHT22;51106;53.186;6.598;2022-08-30T02:08:20;14.00;99.90
52979;DHT22;51106;53.186;6.598;2022-08-30T02:10:22;14.10;99.90
52979;DHT22;51106;53.186;6.598;2022-08-30T02:12:24;14.10;99.90
52979;DHT22;51106;53.186;6.598;2022-08-30T02:14:26;14.10;99.90
52979;DHT22;51106;53.186;6.598;2022-08-30T02:16:28;14.10;99.90
52979;DHT22;51106;53.186;6.598;2022-08-30T02:18:32;14.10;99.90
52979;DHT22;51106;53.186;6.598;2022-08-30T02:20:34;14.10;99.90
52979;DHT22;51106;53.186;6.598;2022-08-30T02:22:38;14.10;99.90
52979;DHT22;51106;53.186;6.598;2022-08-30T02:24:48;14.10;99.90
52979;DHT22;51106;53.186;6.598;2022-08-30T02:26:50;14.20;99.90
52979;DHT22;51106;53.186;6.598;2022-08-30T02:28:54;14.20;99.90
52979;DHT22;51106;53.186;6.598;2022-08-30T02:30:56;14.20;99.90
52979;DHT22;51106;53.186;6.598;2022-08-30T02:32:58;14.20;99.90
52979;DHT22;51106;53.186;6.598;2022-08-30T02:35:00;14.30;99.90
52979;DHT22;51106;53.186;6.598;2022-08-30T02:37:02;14.30;99.90
52979;DHT22;51106;53.186;6.598;2022-08-30T02:39:06;14.20;99.90
52979;DHT22;51106;53.186;6.598;2022-08-30T02:41:08;14.20;99.90
52979;DHT22;51106;53.186;6.598;2022-08-30T02:43:10;14.30;99.90
52979;DHT22;51106;53.186;6.598;2022-08-30T02:45:13;14.20;99.90
52979;DHT22;51106;53.186;6.598;2022-08-30T02:47:17;14.30;99.90
52979;DHT22;51106;53.186;6.598;2022-08-30T02:49:19;14.30;99.90
52979;DHT22;51106;53.186;6.598;2022-08-30T02:51:34;14.30;99.90
52979;DHT22;51106;53.186;6.598;2022-08-30T02:53:37;14.30;99.90
52979;DHT22;51106;53.186;6.598;2022-08-30T02:55:40;14.30;99.90
52979;DHT22;51106;53.186;6.598;2022-08-30T02:57:44;14.30;99.90
52979;DHT22;51106;53.186;6.598;2022-08-30T02:59:46;14.20;99.90
52979;DHT22;51106;53.186;6.598;2022-08-30T03:01:48;14.30;99.90
52979;DHT22;51106;53.186;6.598;2022-08-30T03:03:50;14.20;99.90
52979;DHT22;51106;53.186;6.598;2022-08-30T03:05:53;14.30;99.90
52979;DHT22;51106;53.186;6.598;2022-08-30T03:07:55;14.20;99.90
52979;DHT22;51106;53.186;6.598;2022-08-30T03:09:57;14.30;99.90
52979;DHT22;51106;53.186;6.598;2022-08-30T03:11:59;14.20;99.90
52979;DHT22;51106;53.186;6.598;2022-08-30T03:14:01;14.20;99.90
52979;DHT22;51106;53.186;6.598;2022-08-30T03:16:04;14.20;99.90
52979;DHT22;51106;53.186;6.598;2022-08-30T03:18:06;14.10;99.90
52979;DHT22;51106;53.186;6.598;2022-08-30T03:20:10;14.10;99.90
52979;DHT22;51106;53.186;6.598;2022-08-30T03:22:12;14.10;99.90
52979;DHT22;51106;53.186;6.598;2022-08-30T03:24:17;14.10;99.90
52979;DHT22;51106;53.186;6.598;2022-08-30T03:26:19;14.10;99.90
52979;DHT22;51106;53.186;6.598;2022-08-30T03:28:21;14.10;99.90
52979;DHT22;51106;53.186;6.598;2022-08-30T03:30:24;14.10;99.90
52979;DHT22;51106;53.186;6.598;2022-08-30T03:32:26;14.10;99.90
52979;DHT22;51106;53.186;6.598;2022-08-30T03:34:28;14.00;99.90
52979;DHT22;51106;53.186;6.598;2022-08-30T03:36:31;13.90;99.90
52979;DHT22;51106;53.186;6.598;2022-08-30T03:38:34;13.90;99.90
52979;DHT22;51106;53.186;6.598;2022-08-30T03:40:36;13.90;99.90
52979;DHT22;51106;53.186;6.598;2022-08-30T03:42:38;13.90;99.90
52979;DHT22;51106;53.186;6.598;2022-08-30T03:44:44;13.90;99.90
52979;DHT22;51106;53.186;6.598;2022-08-30T03:46:46;13.80;99.90
52979;DHT22;51106;53.186;6.598;2022-08-30T03:48:48;13.90;99.90
52979;DHT22;51106;53.186;6.598;2022-08-30T03:50:51;13.80;99.90
52979;DHT22;51106;53.186;6.598;2022-08-30T03:52:52;13.80;99.90
52979;DHT22;51106;53.186;6.598;2022-08-30T03:54:54;13.70;99.90
52979;DHT22;51106;53.186;6.598;2022-08-30T03:56:57;13.70;99.90
52979;DHT22;51106;53.186;6.598;2022-08-30T03:59:00;13.70;99.90
52979;DHT22;51106;53.186;6.598;2022-08-30T04:01:02;13.70;99.90
52979;DHT22;51106;53.186;6.598;2022-08-30T04:03:04;13.70;99.90
52979;DHT22;51106;53.186;6.598;2022-08-30T04:05:10;13.60;99.90
52979;DHT22;51106;53.186;6.598;2022-08-30T04:07:14;13.50;99.90
52979;DHT22;51106;53.186;6.598;2022-08-30T04:09:17;13.50;99.90
52979;DHT22;51106;53.186;6.598;2022-08-30T04:11:19;13.50;99.90
52979;DHT22;51106;53.186;6.598;2022-08-30T04:13:23;13.50;99.90
52979;DHT22;51106;53.186;6.598;2022-08-30T04:15:25;13.50;99.90
52979;DHT22;51106;53.186;6.598;2022-08-30T04:17:27;13.50;99.90
52979;DHT22;51106;53.186;6.598;2022-08-30T04:19:29;13.50;99.90
52979;DHT22;51106;53.186;6.598;2022-08-30T04:21:31;13.50;99.90
52979;DHT22;51106;53.186;6.598;2022-08-30T04:23:35;13.50;99.90
52979;DHT22;51106;53.186;6.598;2022-08-30T04:25:39;13.40;99.90
52979;DHT22;51106;53.186;6.598;2022-08-30T04:27:43;13.40;99.90
52979;DHT22;51106;53.186;6.598;2022-08-30T04:29:46;13.40;99.90
52979;DHT22;51106;53.186;6.598;2022-08-30T04:31:48;13.30;99.90
52979;DHT22;51106;53.186;6.598;2022-08-30T04:33:50;13.30;99.90
52979;DHT22;51106;53.186;6.598;2022-08-30T04:35:52;13.30;99.90
52979;DHT22;51106;53.186;6.598;2022-08-30T04:37:54;13.20;99.90
52979;DHT22;51106;53.186;6.598;2022-08-30T04:39:57;13.10;99.90
52979;DHT22;51106;53.186;6.598;2022-08-30T04:42:01;13.10;99.90
52979;DHT22;51106;53.186;6.598;2022-08-30T04:44:04;13.10;99.90
52979;DHT22;51106;53.186;6.598;2022-08-30T04:46:07;13.10;99.90
52979;DHT22;51106;53.186;6.598;2022-08-30T04:48:09;13.10;99.90
52979;DHT22;51106;53.186;6.598;2022-08-30T04:50:15;13.00;99.90
52979;DHT22;51106;53.186;6.598;2022-08-30T04:52:17;13.00;99.90
52979;DHT22;51106;53.186;6.598;2022-08-30T04:54:19;13.00;99.90
52979;DHT22;51106;53.186;6.598;2022-08-30T04:56:23;13.00;99.90
52979;DHT22;51106;53.186;6.598;2022-08-30T04:58:26;13.10;99.90
52979;DHT22;51106;53.186;6.598;2022-08-30T05:00:28;13.10;99.90
52979;DHT22;51106;53.186;6.598;2022-08-30T05:02:30;13.10;99.90
52979;DHT22;51106;53.186;6.598;2022-08-30T05:04:33;13.10;99.90
52979;DHT22;51106;53.186;6.598;2022-08-30T05:06:35;13.10;99.90
52979;DHT22;51106;53.186;6.598;2022-08-30T05:08:37;13.10;99.90
52979;DHT22;51106;53.186;6.598;2022-08-30T05:10:41;13.10;99.90
52979;DHT22;51106;53.186;6.598;2022-08-30T05:12:43;13.10;99.90
52979;DHT22;51106;53.186;6.598;2022-08-30T05:14:45;13.10;99.90
52979;DHT22;51106;53.186;6.598;2022-08-30T05:16:47;13.10;99.90
52979;DHT22;51106;53.186;6.598;2022-08-30T05:18:51;13.00;99.90
52979;DHT22;51106;53.186;6.598;2022-08-30T05:21:14;13.00;99.90
52979;DHT22;51106;53.186;6.598;2022-08-30T05:23:17;13.00;99.90
52979;DHT22;51106;53.186;6.598;2022-08-30T05:25:26;13.00;99.90
52979;DHT22;51106;53.186;6.598;2022-08-30T05:27:28;13.00;99.90
52979;DHT22;51106;53.186;6.598;2022-08-30T05:29:30;13.00;99.90
52979;DHT22;51106;53.186;6.598;2022-08-30T05:31:34;13.00;99.90
52979;DHT22;51106;53.186;6.598;2022-08-30T05:33:36;13.10;99.90
52979;DHT22;51106;53.186;6.598;2022-08-30T05:35:39;13.20;99.90
52979;DHT22;51106;53.186;6.598;2022-08-30T05:37:42;13.10;99.90
52979;DHT22;51106;53.186;6.598;2022-08-30T05:39:44;13.20;99.90
52979;DHT22;51106;53.186;6.598;2022-08-30T05:41:57;13.30;99.90
52979;DHT22;51106;53.186;6.598;2022-08-30T05:44:01;13.40;99.90
52979;DHT22;51106;53.186;6.598;2022-08-30T05:46:06;13.40;99.90
52979;DHT22;51106;53.186;6.598;2022-08-30T05:48:09;13.50;99.90
52979;DHT22;51106;53.186;6.598;2022-08-30T05:50:13;13.50;99.90
52979;DHT22;51106;53.186;6.598;2022-08-30T05:52:16;13.60;99.90
52979;DHT22;51106;53.186;6.598;2022-08-30T05:54:18;13.60;99.90
52979;DHT22;51106;53.186;6.598;2022-08-30T05:56:23;13.70;99.90
52979;DHT22;51106;53.186;6.598;2022-08-30T05:58:27;14.10;99.90
52979;DHT22;51106;53.186;6.598;2022-08-30T06:00:30;13.90;99.90
52979;DHT22;51106;53.186;6.598;2022-08-30T06:02:32;14.00;99.90
52979;DHT22;51106;53.186;6.598;2022-08-30T06:04:34;14.10;99.90
52979;DHT22;51106;53.186;6.598;2022-08-30T06:06:39;14.10;99.90
52979;DHT22;51106;53.186;6.598;2022-08-30T06:08:41;14.20;99.90
52979;DHT22;51106;53.186;6.598;2022-08-30T06:10:46;14.30;99.90
52979;DHT22;51106;53.186;6.598;2022-08-30T06:12:50;14.40;99.90
52979;DHT22;51106;53.186;6.598;2022-08-30T06:14:52;14.50;99.90
52979;DHT22;51106;53.186;6.598;2022-08-30T06:16:57;14.70;99.90
52979;DHT22;51106;53.186;6.598;2022-08-30T06:18:59;14.80;99.90
52979;DHT22;51106;53.186;6.598;2022-08-30T06:21:02;14.90;99.90
52979;DHT22;51106;53.186;6.598;2022-08-30T06:23:04;15.00;99.90
52979;DHT22;51106;53.186;6.598;2022-08-30T06:25:06;15.20;99.90
52979;DHT22;51106;53.186;6.598;2022-08-30T06:27:09;15.40;99.90
52979;DHT22;51106;53.186;6.598;2022-08-30T06:29:14;15.50;99.90
52979;DHT22;51106;53.186;6.598;2022-08-30T06:31:17;15.70;99.90
52979;DHT22;51106;53.186;6.598;2022-08-30T06:33:19;15.90;99.90
52979;DHT22;51106;53.186;6.598;2022-08-30T06:35:21;16.10;99.90
52979;DHT22;51106;53.186;6.598;2022-08-30T06:37:23;16.20;99.90
52979;DHT22;51106;53.186;6.598;2022-08-30T06:39:30;16.40;99.90
52979;DHT22;51106;53.186;6.598;2022-08-30T06:41:34;16.50;99.90
52979;DHT22;51106;53.186;6.598;2022-08-30T06:43:37;16.60;99.90
52979;DHT22;51106;53.186;6.598;2022-08-30T06:45:39;16.80;99.90
52979;DHT22;51106;53.186;6.598;2022-08-30T06:47:41;16.90;99.90
52979;DHT22;51106;53.186;6.598;2022-08-30T06:49:45;17.00;99.90
52979;DHT22;51106;53.186;6.598;2022-08-30T06:51:47;17.10;99.90
52979;DHT22;51106;53.186;6.598;2022-08-30T06:53:49;17.20;99.90
52979;DHT22;51106;53.186;6.598;2022-08-30T06:57:59;17.50;99.90
52979;DHT22;51106;53.186;6.598;2022-08-30T07:00:04;17.80;99.90
52979;DHT22;51106;53.186;6.598;2022-08-30T07:02:07;17.70;99.90
52979;DHT22;51106;53.186;6.598;2022-08-30T07:04:09;17.80;99.90
52979;DHT22;51106;53.186;6.598;2022-08-30T07:06:12;17.80;99.90
52979;DHT22;51106;53.186;6.598;2022-08-30T07:08:15;17.90;99.90
52979;DHT22;51106;53.186;6.598;2022-08-30T07:10:17;18.00;99.90
52979;DHT22;51106;53.186;6.598;2022-08-30T07:12:19;18.10;99.90
52979;DHT22;51106;53.186;6.598;2022-08-30T07:14:22;18.20;99.90
52979;DHT22;51106;53.186;6.598;2022-08-30T07:16:24;18.20;99.90
52979;DHT22;51106;53.186;6.598;2022-08-30T07:18:26;18.40;99.90
52979;DHT22;51106;53.186;6.598;2022-08-30T07:20:47;18.40;99.90
52979;DHT22;51106;53.186;6.598;2022-08-30T07:22:49;18.50;99.90
52979;DHT22;51106;53.186;6.598;2022-08-30T07:24:51;18.60;99.90
52979;DHT22;51106;53.186;6.598;2022-08-30T07:26:53;18.60;99.90
52979;DHT22;51106;53.186;6.598;2022-08-30T07:28:55;18.70;99.90
52979;DHT22;51106;53.186;6.598;2022-08-30T07:30:58;18.80;99.50
52979;DHT22;51106;53.186;6.598;2022-08-30T07:33:00;18.80;99.10
52979;DHT22;51106;53.186;6.598;2022-08-30T07:35:02;19.00;98.50
52979;DHT22;51106;53.186;6.598;2022-08-30T07:37:05;18.90;97.60
52979;DHT22;51106;53.186;6.598;2022-08-30T07:39:07;19.00;97.50
52979;DHT22;51106;53.186;6.598;2022-08-30T07:41:16;19.00;97.10
52979;DHT22;51106;53.186;6.598;2022-08-30T07:43:18;18.90;96.40
52979;DHT22;51106;53.186;6.598;2022-08-30T07:45:20;19.00;96.20
52979;DHT22;51106;53.186;6.598;2022-08-30T07:47:22;19.00;95.80
52979;DHT22;51106;53.186;6.598;2022-08-30T07:49:24;19.10;95.40
52979;DHT22;51106;53.186;6.598;2022-08-30T07:51:27;19.10;95.30
52979;DHT22;51106;53.186;6.598;2022-08-30T07:53:30;19.10;95.00
52979;DHT22;51106;53.186;6.598;2022-08-30T07:55:32;19.10;94.40
52979;DHT22;51106;53.186;6.598;2022-08-30T07:57:34;19.10;94.30
52979;DHT22;51106;53.186;6.598;2022-08-30T07:59:36;19.20;93.80
52979;DHT22;51106;53.186;6.598;2022-08-30T08:01:38;19.30;93.50
52979;DHT22;51106;53.186;6.598;2022-08-30T08:03:42;19.40;93.30
52979;DHT22;51106;53.186;6.598;2022-08-30T08:05:45;19.40;92.70
52979;DHT22;51106;53.186;6.598;2022-08-30T08:07:47;19.50;92.50
52979;DHT22;51106;53.186;6.598;2022-08-30T08:09:49;19.50;92.40
52979;DHT22;51106;53.186;6.598;2022-08-30T08:11:51;19.60;91.90
52979;DHT22;51106;53.186;6.598;2022-08-30T08:13:54;19.60;91.60
52979;DHT22;51106;53.186;6.598;2022-08-30T08:15:56;19.70;91.20
52979;DHT22;51106;53.186;6.598;2022-08-30T08:17:58;19.70;90.90
52979;DHT22;51106;53.186;6.598;2022-08-30T08:20:02;19.70;90.90
52979;DHT22;51106;53.186;6.598;2022-08-30T08:22:04;19.80;90.70
52979;DHT22;51106;53.186;6.598;2022-08-30T08:24:23;19.80;90.50
52979;DHT22;51106;53.186;6.598;2022-08-30T08:26:25;19.80;90.50
52979;DHT22;51106;53.186;6.598;2022-08-30T08:28:27;19.80;90.00
52979;DHT22;51106;53.186;6.598;2022-08-30T08:30:32;19.90;89.70
52979;DHT22;51106;53.186;6.598;2022-08-30T08:32:35;19.80;87.80
52979;DHT22;51106;53.186;6.598;2022-08-30T08:34:37;19.90;87.60
52979;DHT22;51106;53.186;6.598;2022-08-30T08:36:39;19.90;85.90
52979;DHT22;51106;53.186;6.598;2022-08-30T08:38:41;19.90;86.50
52979;DHT22;51106;53.186;6.598;2022-08-30T08:41:02;20.00;86.50
52979;DHT22;51106;53.186;6.598;2022-08-30T08:43:14;20.20;87.80
52979;DHT22;51106;53.186;6.598;2022-08-30T08:45:32;20.20;85.20
52979;DHT22;51106;53.186;6.598;2022-08-30T08:47:46;20.20;84.50
52979;DHT22;51106;53.186;6.598;2022-08-30T08:50:03;20.10;84.00
52979;DHT22;51106;53.186;6.598;2022-08-30T08:52:07;20.00;82.90
52979;DHT22;51106;53.186;6.598;2022-08-30T08:54:43;19.90;84.80
52979;DHT22;51106;53.186;6.598;2022-08-30T08:56:47;19.90;84.40
52979;DHT22;51106;53.186;6.598;2022-08-30T08:58:54;19.80;83.80
52979;DHT22;51106;53.186;6.598;2022-08-30T09:00:57;19.70;84.20
52979;DHT22;51106;53.186;6.598;2022-08-30T09:03:01;19.70;84.60
52979;DHT22;51106;53.186;6.598;2022-08-30T09:05:05;19.90;84.90
52979;DHT22;51106;53.186;6.598;2022-08-30T09:07:20;19.90;85.00
52979;DHT22;51106;53.186;6.598;2022-08-30T09:09:32;20.00;84.90
52979;DHT22;51106;53.186;6.598;2022-08-30T09:11:36;19.90;84.10
52979;DHT22;51106;53.186;6.598;2022-08-30T09:13:38;19.70;84.90
52979;DHT22;51106;53.186;6.598;2022-08-30T09:15:41;19.80;85.40
52979;DHT22;51106;53.186;6.598;2022-08-30T09:21:59;19.90;86.00
52979;DHT22;51106;53.186;6.598;2022-08-30T09:24:03;20.30;85.00
52979;DHT22;51106;53.186;6.598;2022-08-30T09:26:06;20.50;83.60
52979;DHT22;51106;53.186;6.598;2022-08-30T09:28:12;20.70;82.10
52979;DHT22;51106;53.186;6.598;2022-08-30T09:32:30;21.00;79.40
52979;DHT22;51106;53.186;6.598;2022-08-30T09:34:32;21.30;79.10
52979;DHT22;51106;53.186;6.598;2022-08-30T09:36:43;21.50;78.20
52979;DHT22;51106;53.186;6.598;2022-08-30T09:38:45;21.60;76.90
52979;DHT22;51106;53.186;6.598;2022-08-30T09:40:59;21.70;76.10
52979;DHT22;51106;53.186;6.598;2022-08-30T09:43:07;21.80;76.00
52979;DHT22;51106;53.186;6.598;2022-08-30T09:45:32;21.90;75.20
52979;DHT22;51106;53.186;6.598;2022-08-30T09:47:41;22.10;71.30
52979;DHT22;51106;53.186;6.598;2022-08-30T09:49:43;22.20;73.10
52979;DHT22;51106;53.186;6.598;2022-08-30T09:52:28;22.30;73.40
52979;DHT22;51106;53.186;6.598;2022-08-30T09:54:33;22.40;71.20
52979;DHT22;51106;53.186;6.598;2022-08-30T09:57:01;22.50;70.20
52979;DHT22;51106;53.186;6.598;2022-08-30T10:01:42;22.40;67.00
52979;DHT22;51106;53.186;6.598;2022-08-30T10:04:20;22.40;65.90
52979;DHT22;51106;53.186;6.598;2022-08-30T10:06:37;22.50;68.60
52979;DHT22;51106;53.186;6.598;2022-08-30T10:11:03;22.80;64.80
52979;DHT22;51106;53.186;6.598;2022-08-30T10:20:15;21.10;66.40
52979;DHT22;51106;53.186;6.598;2022-08-30T10:22:38;20.90;68.40
52979;DHT22;51106;53.186;6.598;2022-08-30T10:24:46;21.00;68.50
52979;DHT22;51106;53.186;6.598;2022-08-30T10:26:56;21.20;69.70
52979;DHT22;51106;53.186;6.598;2022-08-30T10:29:10;21.50;69.60
52979;DHT22;51106;53.186;6.598;2022-08-30T10:31:26;21.60;67.70
52979;DHT22;51106;53.186;6.598;2022-08-30T10:33:37;21.90;68.00
52979;DHT22;51106;53.186;6.598;2022-08-30T10:35:53;22.00;65.10
52979;DHT22;51106;53.186;6.598;2022-08-30T10:38:06;22.10;58.10
52979;DHT22;51106;53.186;6.598;2022-08-30T10:40:34;22.50;61.20
52979;DHT22;51106;53.186;6.598;2022-08-30T10:42:55;22.60;58.90
52979;DHT22;51106;53.186;6.598;2022-08-30T10:45:13;22.70;60.70
52979;DHT22;51106;53.186;6.598;2022-08-30T10:47:28;22.70;59.70
52979;DHT22;51106;53.186;6.598;2022-08-30T10:49:45;22.80;58.40
52979;DHT22;51106;53.186;6.598;2022-08-30T10:56:16;23.00;58.30
52979;DHT22;51106;53.186;6.598;2022-08-30T10:58:21;23.20;57.70
52979;DHT22;51106;53.186;6.598;2022-08-30T11:00:30;23.20;57.10
52979;DHT22;51106;53.186;6.598;2022-08-30T11:07:33;23.30;56.60
52979;DHT22;51106;53.186;6.598;2022-08-30T11:10:02;23.20;55.70
52979;DHT22;51106;53.186;6.598;2022-08-30T11:14:45;23.20;56.20
52979;DHT22;51106;53.186;6.598;2022-08-30T11:16:50;23.30;56.10
52979;DHT22;51106;53.186;6.598;2022-08-30T11:18:54;23.40;55.70
52979;DHT22;51106;53.186;6.598;2022-08-30T11:21:38;23.50;55.40
52979;DHT22;51106;53.186;6.598;2022-08-30T11:23:41;23.50;52.50
52979;DHT22;51106;53.186;6.598;2022-08-30T11:28:04;23.50;52.30
52979;DHT22;51106;53.186;6.598;2022-08-30T11:35:46;23.40;53.00
52979;DHT22;51106;53.186;6.598;2022-08-30T11:37:53;23.60;51.00
52979;DHT22;51106;53.186;6.598;2022-08-30T11:39:57;23.80;52.60
52979;DHT22;51106;53.186;6.598;2022-08-30T11:44:32;23.70;49.50
52979;DHT22;51106;53.186;6.598;2022-08-30T11:46:38;23.90;51.50
52979;DHT22;51106;53.186;6.598;2022-08-30T11:48:46;24.00;50.10
52979;DHT22;51106;53.186;6.598;2022-08-30T11:51:05;24.00;50.70
52979;DHT22;51106;53.186;6.598;2022-08-30T11:53:21;24.00;49.70
52979;DHT22;51106;53.186;6.598;2022-08-30T11:55:38;23.90;50.90
52979;DHT22;51106;53.186;6.598;2022-08-30T12:02:06;24.20;49.40
52979;DHT22;51106;53.186;6.598;2022-08-30T12:04:25;24.00;48.40
52979;DHT22;51106;53.186;6.598;2022-08-30T12:08:48;23.70;48.30
52979;DHT22;51106;53.186;6.598;2022-08-30T12:11:01;23.50;49.00
52979;DHT22;51106;53.186;6.598;2022-08-30T12:13:05;23.50;50.60
52979;DHT22;51106;53.186;6.598;2022-08-30T12:15:25;23.40;51.00
52979;DHT22;51106;53.186;6.598;2022-08-30T12:17:46;23.20;49.80
52979;DHT22;51106;53.186;6.598;2022-08-30T12:20:25;23.20;50.20
52979;DHT22;51106;53.186;6.598;2022-08-30T12:22:28;23.20;51.50
52979;DHT22;51106;53.186;6.598;2022-08-30T12:24:34;23.30;51.50
52979;DHT22;51106;53.186;6.598;2022-08-30T12:26:40;23.30;50.10
52979;DHT22;51106;53.186;6.598;2022-08-30T12:28:45;23.40;51.30
52979;DHT22;51106;53.186;6.598;2022-08-30T12:30:51;23.60;51.20
52979;DHT22;51106;53.186;6.598;2022-08-30T12:32:53;23.70;49.50
52979;DHT22;51106;53.186;6.598;2022-08-30T12:35:00;23.50;50.10
52979;DHT22;51106;53.186;6.598;2022-08-30T12:37:08;23.40;50.40
52979;DHT22;51106;53.186;6.598;2022-08-30T12:39:12;23.40;50.50
52979;DHT22;51106;53.186;6.598;2022-08-30T12:41:19;23.50;50.20
52979;DHT22;51106;53.186;6.598;2022-08-30T12:43:48;23.50;50.50
52979;DHT22;51106;53.186;6.598;2022-08-30T12:45:50;23.50;48.50
52979;DHT22;51106;53.186;6.598;2022-08-30T12:48:09;23.20;48.00
52979;DHT22;51106;53.186;6.598;2022-08-30T12:50:25;23.00;48.90
52979;DHT22;51106;53.186;6.598;2022-08-30T12:52:35;22.80;50.60
52979;DHT22;51106;53.186;6.598;2022-08-30T12:54:39;22.70;51.00
52979;DHT22;51106;53.186;6.598;2022-08-30T12:56:56;22.80;51.00
52979;DHT22;51106;53.186;6.598;2022-08-30T12:59:04;22.90;50.50
52979;DHT22;51106;53.186;6.598;2022-08-30T13:01:16;23.00;50.50
52979;DHT22;51106;53.186;6.598;2022-08-30T13:03:33;23.00;49.40
52979;DHT22;51106;53.186;6.598;2022-08-30T13:07:45;23.00;51.30
52979;DHT22;51106;53.186;6.598;2022-08-30T13:09:48;23.00;50.80
52979;DHT22;51106;53.186;6.598;2022-08-30T13:11:51;22.70;50.60
52979;DHT22;51106;53.186;6.598;2022-08-30T13:13:56;22.60;50.90
52979;DHT22;51106;53.186;6.598;2022-08-30T13:18:28;22.70;53.70
52979;DHT22;51106;53.186;6.598;2022-08-30T13:20:32;23.10;51.10
52979;DHT22;51106;53.186;6.598;2022-08-30T13:22:39;23.10;50.80
52979;DHT22;51106;53.186;6.598;2022-08-30T13:24:42;23.00;50.60
52979;DHT22;51106;53.186;6.598;2022-08-30T13:26:44;22.90;51.00
52979;DHT22;51106;53.186;6.598;2022-08-30T13:28:58;22.80;51.00
52979;DHT22;51106;53.186;6.598;2022-08-30T13:31:00;22.70;51.20
52979;DHT22;51106;53.186;6.598;2022-08-30T13:33:05;22.80;51.20
52979;DHT22;51106;53.186;6.598;2022-08-30T13:35:07;23.00;51.60
52979;DHT22;51106;53.186;6.598;2022-08-30T13:37:14;23.30;51.40
52979;DHT22;51106;53.186;6.598;2022-08-30T13:39:38;23.50;50.00
52979;DHT22;51106;53.186;6.598;2022-08-30T13:41:42;23.60;50.00
52979;DHT22;51106;53.186;6.598;2022-08-30T13:43:45;23.80;49.60
52979;DHT22;51106;53.186;6.598;2022-08-30T13:46:07;23.90;49.70
52979;DHT22;51106;53.186;6.598;2022-08-30T13:48:12;23.90;49.70
52979;DHT22;51106;53.186;6.598;2022-08-30T13:50:18;23.80;50.00
52979;DHT22;51106;53.186;6.598;2022-08-30T13:52:21;23.60;50.00
52979;DHT22;51106;53.186;6.598;2022-08-30T13:54:26;23.40;50.40
52979;DHT22;51106;53.186;6.598;2022-08-30T13:56:29;23.00;50.90
52979;DHT22;51106;53.186;6.598;2022-08-30T13:58:32;22.80;51.20
52979;DHT22;51106;53.186;6.598;2022-08-30T14:00:34;22.60;50.90
52979;DHT22;51106;53.186;6.598;2022-08-30T14:02:38;22.70;51.30
52979;DHT22;51106;53.186;6.598;2022-08-30T14:04:48;22.80;52.90
52979;DHT22;51106;53.186;6.598;2022-08-30T14:06:50;22.80;53.30
52979;DHT22;51106;53.186;6.598;2022-08-30T14:09:12;22.80;52.90